sensor_id;sensor_type;location;lat;lon;timestamp;temperature;humidity
21167;DHT22;10741;52.272;9.580;2023-02-01T00:01:18;5.20;99.90
21167;DHT22;10741;52.272;9.580;2023-02-01T00:03:43;5.10;99.90
21167;DHT22;10741;52.272;9.580;2023-02-01T00:06:09;5.10;99.90
21167;DHT22;10741;52.272;9.580;2023-02-01T00:08:35;5.00;99.90
21167;DHT22;10741;52.272;9.580;2023-02-01T00:11:09;5.00;99.90
21167;DHT22;10741;52.272;9.580;2023-02-01T00:13:36;5.00;99.90
21167;DHT22;10741;52.272;9.580;2023-02-01T00:19:27;5.10;99.90
21167;DHT22;10741;52.272;9.580;2023-02-01T00:21:53;5.00;99.90
21167;DHT22;10741;52.272;9.580;2023-02-01T00:24:19;5.00;99.90
21167;DHT22;10741;52.272;9.580;2023-02-01T00:26:45;5.00;99.90
21167;DHT22;10741;52.272;9.580;2023-02-01T00:29:14;5.00;99.90
21167;DHT22;10741;52.272;9.580;2023-02-01T00:31:40;5.00;99.90
21167;DHT22;10741;52.272;9.580;2023-02-01T00:34:06;4.90;99.90
21167;DHT22;10741;52.272;9.580;2023-02-01T00:36:32;5.00;99.90
21167;DHT22;10741;52.272;9.580;2023-02-01T00:38:58;4.90;99.90
21167;DHT22;10741;52.272;9.580;2023-02-01T00:41:24;4.90;99.90
21167;DHT22;10741;52.272;9.580;2023-02-01T00:43:50;4.90;99.90
21167;DHT22;10741;52.272;9.580;2023-02-01T00:46:18;4.90;99.90
21167;DHT22;10741;52.272;9.580;2023-02-01T00:48:44;4.90;99.90
21167;DHT22;10741;52.272;9.580;2023-02-01T00:51:18;4.90;99.90
21167;DHT22;10741;52.272;9.580;2023-02-01T00:53:44;4.90;99.90
21167;DHT22;10741;52.272;9.580;2023-02-01T00:56:11;4.90;99.90
21167;DHT22;10741;52.272;9.580;2023-02-01T00:58:37;5.00;99.90
21167;DHT22;10741;52.272;9.580;2023-02-01T01:01:12;5.00;99.90
21167;DHT22;10741;52.272;9.580;2023-02-01T01:03:41;4.90;99.90
21167;DHT22;10741;52.272;9.580;2023-02-01T01:06:09;4.80;99.90
21167;DHT22;10741;52.272;9.580;2023-02-01T01:08:36;4.80;99.90
21167;DHT22;10741;52.272;9.580;2023-02-01T01:11:10;4.80;99.90
21167;DHT22;10741;52.272;9.580;2023-02-01T01:13:36;4.80;99.90
21167;DHT22;10741;52.272;9.580;2023-02-01T01:16:04;4.90;99.90
21167;DHT22;10741;52.272;9.580;2023-02-01T01:18:31;5.00;99.90
21167;DHT22;10741;52.272;9.580;2023-02-01T01:20:57;5.00;99.90
21167;DHT22;10741;52.272;9.580;2023-02-01T01:23:23;5.00;99.90
21167;DHT22;10741;52.272;9.580;2023-02-01T01:25:49;5.00;99.90
21167;DHT22;10741;52.272;9.580;2023-02-01T01:28:15;5.00;99.90
21167;DHT22;10741;52.272;9.580;2023-02-01T01:30:41;5.00;99.90
21167;DHT22;10741;52.272;9.580;2023-02-01T01:33:07;5.10;99.90
21167;DHT22;10741;52.272;9.580;2023-02-01T01:35:33;5.10;99.90
21167;DHT22;10741;52.272;9.580;2023-02-01T01:37:59;5.10;99.90
21167;DHT22;10741;52.272;9.580;2023-02-01T01:40:27;5.10;99.90
21167;DHT22;10741;52.272;9.580;2023-02-01T01:42:52;5.10;99.90
21167;DHT22;10741;52.272;9.580;2023-02-01T01:45:33;5.10;99.90
21167;DHT22;10741;52.272;9.580;2023-02-01T01:48:04;5.10;99.90
21167;DHT22;10741;52.272;9.580;2023-02-01T01:50:35;5.00;99.90
21167;DHT22;10741;52.272;9.580;2023-02-01T01:53:04;5.10;99.90
21167;DHT22;10741;52.272;9.580;2023-02-01T01:55:36;5.00;99.90
21167;DHT22;10741;52.272;9.580;2023-02-01T01:58:08;5.00;99.90
21167;DHT22;10741;52.272;9.580;2023-02-01T02:00:35;5.00;99.90
21167;DHT22;10741;52.272;9.580;2023-02-01T02:03:32;5.00;99.90
21167;DHT22;10741;52.272;9.580;2023-02-01T02:06:01;5.00;99.90
21167;DHT22;10741;52.272;9.580;2023-02-01T02:08:27;5.10;99.90
21167;DHT22;10741;52.272;9.580;2023-02-01T02:10:54;5.10;99.90
21167;DHT22;10741;52.272;9.580;2023-02-01T02:13:42;5.20;99.90
21167;DHT22;10741;52.272;9.580;2023-02-01T02:16:54;5.20;99.90
21167;DHT22;10741;52.272;9.580;2023-02-01T02:33:43;5.20;99.90
21167;DHT22;10741;52.272;9.580;2023-02-01T02:38:56;5.40;99.90
21167;DHT22;10741;52.272;9.580;2023-02-01T02:42:07;5.40;99.90
21167;DHT22;10741;52.272;9.580;2023-02-01T02:44:52;5.40;99.90
21167;DHT22;10741;52.272;9.580;2023-02-01T02:50:32;5.40;99.90
21167;DHT22;10741;52.272;9.580;2023-02-01T02:53:27;5.40;99.90
21167;DHT22;10741;52.272;9.580;2023-02-01T02:56:12;5.40;99.90
21167;DHT22;10741;52.272;9.580;2023-02-01T02:58:59;5.40;99.90
21167;DHT22;10741;52.272;9.580;2023-02-01T03:01:45;5.40;99.90
21167;DHT22;10741;52.272;9.580;2023-02-01T03:04:29;5.30;99.90
21167;DHT22;10741;52.272;9.580;2023-02-01T03:06:55;5.30;99.90
21167;DHT22;10741;52.272;9.580;2023-02-01T03:11:51;5.40;99.90
21167;DHT22;10741;52.272;9.580;2023-02-01T03:14:41;5.40;99.90
21167;DHT22;10741;52.272;9.580;2023-02-01T03:17:16;5.40;99.90
21167;DHT22;10741;52.272;9.580;2023-02-01T03:19:46;5.40;99.90
21167;DHT22;10741;52.272;9.580;2023-02-01T03:22:18;5.40;99.90
21167;DHT22;10741;52.272;9.580;2023-02-01T03:24:58;5.40;99.90
21167;DHT22;10741;52.272;9.580;2023-02-01T03:27:32;5.50;99.90
21167;DHT22;10741;52.272;9.580;2023-02-01T03:30:04;5.50;99.90
21167;DHT22;10741;52.272;9.580;2023-02-01T03:32:32;5.40;99.90
21167;DHT22;10741;52.272;9.580;2023-02-01T03:35:23;5.40;99.90
21167;DHT22;10741;52.272;9.580;2023-02-01T03:37:56;5.30;99.90
21167;DHT22;10741;52.272;9.580;2023-02-01T03:40:27;5.20;99.90
21167;DHT22;10741;52.272;9.580;2023-02-01T03:42:55;5.20;99.90
21167;DHT22;10741;52.272;9.580;2023-02-01T03:45:31;5.10;99.90
21167;DHT22;10741;52.272;9.580;2023-02-01T03:48:00;5.10;99.90
21167;DHT22;10741;52.272;9.580;2023-02-01T03:50:28;5.10;99.90
21167;DHT22;10741;52.272;9.580;2023-02-01T03:55:24;5.00;99.90
21167;DHT22;10741;52.272;9.580;2023-02-01T04:00:31;5.00;99.90
21167;DHT22;10741;52.272;9.580;2023-02-01T04:02:56;5.00;99.90
21167;DHT22;10741;52.272;9.580;2023-02-01T04:05:22;5.10;99.90
21167;DHT22;10741;52.272;9.580;2023-02-01T04:07:48;5.10;99.90
21167;DHT22;10741;52.272;9.580;2023-02-01T04:10:14;5.10;99.90
21167;DHT22;10741;52.272;9.580;2023-02-01T04:12:41;5.10;99.90
21167;DHT22;10741;52.272;9.580;2023-02-01T04:15:07;5.10;99.90
21167;DHT22;10741;52.272;9.580;2023-02-01T04:17:34;5.10;99.90
21167;DHT22;10741;52.272;9.580;2023-02-01T04:19:59;5.10;99.90
21167;DHT22;10741;52.272;9.580;2023-02-01T04:22:25;5.10;99.90
21167;DHT22;10741;52.272;9.580;2023-02-01T04:24:51;5.20;99.90
21167;DHT22;10741;52.272;9.580;2023-02-01T04:27:17;5.20;99.90
21167;DHT22;10741;52.272;9.580;2023-02-01T04:29:43;5.30;99.90
21167;DHT22;10741;52.272;9.580;2023-02-01T04:32:10;5.30;99.90
21167;DHT22;10741;52.272;9.580;2023-02-01T04:34:36;5.40;99.90
21167;DHT22;10741;52.272;9.580;2023-02-01T04:37:02;5.30;99.90
21167;DHT22;10741;52.272;9.580;2023-02-01T04:39:28;5.30;99.90
21167;DHT22;10741;52.272;9.580;2023-02-01T04:41:54;5.40;99.90
21167;DHT22;10741;52.272;9.580;2023-02-01T04:44:20;5.40;99.90
21167;DHT22;10741;52.272;9.580;2023-02-01T04:46:46;5.30;99.90
21167;DHT22;10741;52.272;9.580;2023-02-01T04:49:14;5.40;99.90
21167;DHT22;10741;52.272;9.580;2023-02-01T04:51:41;5.40;99.90
21167;DHT22;10741;52.272;9.580;2023-02-01T04:54:07;5.40;99.90
21167;DHT22;10741;52.272;9.580;2023-02-01T04:56:33;5.20;99.90
21167;DHT22;10741;52.272;9.580;2023-02-01T04:59:00;5.10;99.90
21167;DHT22;10741;52.272;9.580;2023-02-01T05:01:28;5.10;99.90
21167;DHT22;10741;52.272;9.580;2023-02-01T05:03:54;5.00;99.90
21167;DHT22;10741;52.272;9.580;2023-02-01T05:06:20;4.90;99.90
21167;DHT22;10741;52.272;9.580;2023-02-01T05:08:46;4.80;99.90
21167;DHT22;10741;52.272;9.580;2023-02-01T05:11:12;4.60;99.90
21167;DHT22;10741;52.272;9.580;2023-02-01T05:13:59;4.60;99.90
21167;DHT22;10741;52.272;9.580;2023-02-01T05:16:25;4.50;99.90
21167;DHT22;10741;52.272;9.580;2023-02-01T05:18:51;4.50;99.90
21167;DHT22;10741;52.272;9.580;2023-02-01T05:21:17;4.50;99.90
21167;DHT22;10741;52.272;9.580;2023-02-01T05:23:43;4.50;99.90
21167;DHT22;10741;52.272;9.580;2023-02-01T05:26:27;4.50;99.90
21167;DHT22;10741;52.272;9.580;2023-02-01T05:28:53;4.50;99.90
21167;DHT22;10741;52.272;9.580;2023-02-01T05:31:32;4.50;99.90
21167;DHT22;10741;52.272;9.580;2023-02-01T05:33:58;4.50;99.90
21167;DHT22;10741;52.272;9.580;2023-02-01T05:36:24;4.50;99.90
21167;DHT22;10741;52.272;9.580;2023-02-01T05:38:50;4.50;99.90
21167;DHT22;10741;52.272;9.580;2023-02-01T05:41:15;4.60;99.90
21167;DHT22;10741;52.272;9.580;2023-02-01T05:43:41;4.60;99.90
21167;DHT22;10741;52.272;9.580;2023-02-01T05:46:07;4.70;99.90
21167;DHT22;10741;52.272;9.580;2023-02-01T05:48:36;4.80;99.90
21167;DHT22;10741;52.272;9.580;2023-02-01T05:51:01;5.00;99.90
21167;DHT22;10741;52.272;9.580;2023-02-01T05:53:27;5.00;99.90
21167;DHT22;10741;52.272;9.580;2023-02-01T05:55:53;5.10;99.90
21167;DHT22;10741;52.272;9.580;2023-02-01T05:58:18;5.10;99.90
21167;DHT22;10741;52.272;9.580;2023-02-01T06:00:44;5.20;99.90
21167;DHT22;10741;52.272;9.580;2023-02-01T06:03:10;5.10;99.90
21167;DHT22;10741;52.272;9.580;2023-02-01T06:05:36;5.10;99.90
21167;DHT22;10741;52.272;9.580;2023-02-01T06:08:02;5.00;99.90
21167;DHT22;10741;52.272;9.580;2023-02-01T06:10:28;5.00;99.90
21167;DHT22;10741;52.272;9.580;2023-02-01T06:12:54;5.10;99.90
21167;DHT22;10741;52.272;9.580;2023-02-01T06:15:19;5.00;99.90
21167;DHT22;10741;52.272;9.580;2023-02-01T06:17:46;5.00;99.90
21167;DHT22;10741;52.272;9.580;2023-02-01T06:20:13;5.00;99.90
21167;DHT22;10741;52.272;9.580;2023-02-01T06:22:39;5.00;99.90
21167;DHT22;10741;52.272;9.580;2023-02-01T06:25:07;5.10;99.90
21167;DHT22;10741;52.272;9.580;2023-02-01T06:27:33;5.10;99.90
21167;DHT22;10741;52.272;9.580;2023-02-01T06:29:59;5.10;99.90
21167;DHT22;10741;52.272;9.580;2023-02-01T06:32:25;5.10;99.90
21167;DHT22;10741;52.272;9.580;2023-02-01T06:34:50;5.00;99.90
21167;DHT22;10741;52.272;9.580;2023-02-01T06:37:18;4.90;99.90
21167;DHT22;10741;52.272;9.580;2023-02-01T06:39:44;4.80;99.90
21167;DHT22;10741;52.272;9.580;2023-02-01T06:42:10;4.80;99.90
21167;DHT22;10741;52.272;9.580;2023-02-01T06:44:36;4.70;99.90
21167;DHT22;10741;52.272;9.580;2023-02-01T06:47:03;4.70;99.90
21167;DHT22;10741;52.272;9.580;2023-02-01T06:49:29;4.70;99.90
21167;DHT22;10741;52.272;9.580;2023-02-01T06:51:55;4.70;99.90
21167;DHT22;10741;52.272;9.580;2023-02-01T06:54:21;4.70;99.90
21167;DHT22;10741;52.272;9.580;2023-02-01T06:56:46;4.70;99.90
21167;DHT22;10741;52.272;9.580;2023-02-01T06:59:12;4.70;99.90
21167;DHT22;10741;52.272;9.580;2023-02-01T07:01:38;4.70;99.90
21167;DHT22;10741;52.272;9.580;2023-02-01T07:04:04;4.70;99.90
21167;DHT22;10741;52.272;9.580;2023-02-01T07:06:30;4.70;99.90
21167;DHT22;10741;52.272;9.580;2023-02-01T07:08:57;4.70;99.90
21167;DHT22;10741;52.272;9.580;2023-02-01T07:11:23;4.70;99.90
21167;DHT22;10741;52.272;9.580;2023-02-01T07:13:49;4.70;99.90
21167;DHT22;10741;52.272;9.580;2023-02-01T07:16:17;4.70;99.90
21167;DHT22;10741;52.272;9.580;2023-02-01T07:18:44;4.70;99.90
21167;DHT22;10741;52.272;9.580;2023-02-01T07:21:10;4.70;99.90
21167;DHT22;10741;52.272;9.580;2023-02-01T07:23:36;4.80;99.90
21167;DHT22;10741;52.272;9.580;2023-02-01T07:26:06;4.70;99.90
21167;DHT22;10741;52.272;9.580;2023-02-01T07:28:33;4.80;99.90
21167;DHT22;10741;52.272;9.580;2023-02-01T07:31:06;4.80;99.90
21167;DHT22;10741;52.272;9.580;2023-02-01T07:33:32;4.80;99.90
21167;DHT22;10741;52.272;9.580;2023-02-01T07:36:01;4.80;99.90
21167;DHT22;10741;52.272;9.580;2023-02-01T07:38:27;4.80;99.90
21167;DHT22;10741;52.272;9.580;2023-02-01T07:41:00;4.80;99.90
21167;DHT22;10741;52.272;9.580;2023-02-01T07:43:27;4.80;99.90
21167;DHT22;10741;52.272;9.580;2023-02-01T07:45:54;4.80;99.90
21167;DHT22;10741;52.272;9.580;2023-02-01T07:48:21;4.80;99.90
21167;DHT22;10741;52.272;9.580;2023-02-01T07:50:47;4.90;99.90
21167;DHT22;10741;52.272;9.580;2023-02-01T07:53:13;5.00;99.90
21167;DHT22;10741;52.272;9.580;2023-02-01T07:55:40;5.00;99.90
21167;DHT22;10741;52.272;9.580;2023-02-01T07:58:06;5.10;99.90
21167;DHT22;10741;52.272;9.580;2023-02-01T08:00:32;5.10;99.90
21167;DHT22;10741;52.272;9.580;2023-02-01T08:03:16;5.10;99.90
21167;DHT22;10741;52.272;9.580;2023-02-01T08:05:42;5.20;99.90
21167;DHT22;10741;52.272;9.580;2023-02-01T08:08:08;5.30;99.90
21167;DHT22;10741;52.272;9.580;2023-02-01T08:10:34;5.40;99.90
21167;DHT22;10741;52.272;9.580;2023-02-01T08:13:01;5.50;99.90
21167;DHT22;10741;52.272;9.580;2023-02-01T08:15:28;5.50;99.90
21167;DHT22;10741;52.272;9.580;2023-02-01T08:17:54;5.60;99.90
21167;DHT22;10741;52.272;9.580;2023-02-01T08:20:21;5.60;99.90
21167;DHT22;10741;52.272;9.580;2023-02-01T08:22:49;5.60;99.90
21167;DHT22;10741;52.272;9.580;2023-02-01T08:25:15;5.70;99.90
21167;DHT22;10741;52.272;9.580;2023-02-01T08:27:40;5.90;99.90
21167;DHT22;10741;52.272;9.580;2023-02-01T08:30:07;6.00;99.90
21167;DHT22;10741;52.272;9.580;2023-02-01T08:32:34;6.10;99.90
21167;DHT22;10741;52.272;9.580;2023-02-01T08:34:59;6.20;99.90
21167;DHT22;10741;52.272;9.580;2023-02-01T08:37:25;6.60;99.90
21167;DHT22;10741;52.272;9.580;2023-02-01T08:39:51;7.20;99.90
21167;DHT22;10741;52.272;9.580;2023-02-01T08:42:17;7.20;99.90
21167;DHT22;10741;52.272;9.580;2023-02-01T08:45:03;7.00;99.90
21167;DHT22;10741;52.272;9.580;2023-02-01T08:47:29;6.70;99.90
21167;DHT22;10741;52.272;9.580;2023-02-01T08:49:55;6.50;99.90
21167;DHT22;10741;52.272;9.580;2023-02-01T08:52:21;6.50;99.90
21167;DHT22;10741;52.272;9.580;2023-02-01T08:54:47;6.90;99.90
21167;DHT22;10741;52.272;9.580;2023-02-01T08:57:13;7.10;99.90
21167;DHT22;10741;52.272;9.580;2023-02-01T08:59:38;7.60;99.90
21167;DHT22;10741;52.272;9.580;2023-02-01T09:02:04;7.80;99.90
21167;DHT22;10741;52.272;9.580;2023-02-01T09:04:30;7.70;99.90
21167;DHT22;10741;52.272;9.580;2023-02-01T09:06:56;7.70;99.90
21167;DHT22;10741;52.272;9.580;2023-02-01T09:09:23;7.40;99.90
21167;DHT22;10741;52.272;9.580;2023-02-01T09:11:49;7.30;99.90
21167;DHT22;10741;52.272;9.580;2023-02-01T09:14:16;7.20;99.90
21167;DHT22;10741;52.272;9.580;2023-02-01T09:16:42;7.20;99.90
21167;DHT22;10741;52.272;9.580;2023-02-01T09:19:08;7.20;99.90
21167;DHT22;10741;52.272;9.580;2023-02-01T09:21:34;7.30;99.90
21167;DHT22;10741;52.272;9.580;2023-02-01T09:23:59;7.40;99.90
21167;DHT22;10741;52.272;9.580;2023-02-01T09:26:25;7.40;99.90
21167;DHT22;10741;52.272;9.580;2023-02-01T09:28:51;7.30;99.90
21167;DHT22;10741;52.272;9.580;2023-02-01T09:31:18;7.10;99.90
21167;DHT22;10741;52.272;9.580;2023-02-01T09:33:44;7.00;99.90
21167;DHT22;10741;52.272;9.580;2023-02-01T09:36:09;7.00;99.90
21167;DHT22;10741;52.272;9.580;2023-02-01T09:38:35;7.00;99.90
21167;DHT22;10741;52.272;9.580;2023-02-01T09:41:06;7.10;99.90
21167;DHT22;10741;52.272;9.580;2023-02-01T09:43:45;7.00;99.90
21167;DHT22;10741;52.272;9.580;2023-02-01T09:46:27;7.10;99.90
21167;DHT22;10741;52.272;9.580;2023-02-01T09:48:56;7.10;99.90
21167;DHT22;10741;52.272;9.580;2023-02-01T09:51:38;7.00;99.90
21167;DHT22;10741;52.272;9.580;2023-02-01T09:54:16;7.00;99.90
21167;DHT22;10741;52.272;9.580;2023-02-01T09:59:39;6.90;99.90
21167;DHT22;10741;52.272;9.580;2023-02-01T10:02:26;6.90;99.90
21167;DHT22;10741;52.272;9.580;2023-02-01T10:04:57;6.90;99.90
21167;DHT22;10741;52.272;9.580;2023-02-01T10:10:08;7.00;99.90
21167;DHT22;10741;52.272;9.580;2023-02-01T10:15:44;7.20;99.90
21167;DHT22;10741;52.272;9.580;2023-02-01T10:18:42;7.40;99.90
21167;DHT22;10741;52.272;9.580;2023-02-01T10:27:02;7.50;99.90
21167;DHT22;10741;52.272;9.580;2023-02-01T10:29:37;7.50;99.90
21167;DHT22;10741;52.272;9.580;2023-02-01T10:32:12;7.50;99.90
21167;DHT22;10741;52.272;9.580;2023-02-01T10:34:38;7.60;99.90
21167;DHT22;10741;52.272;9.580;2023-02-01T10:37:27;7.60;99.90
21167;DHT22;10741;52.272;9.580;2023-02-01T10:39:55;7.50;99.90
21167;DHT22;10741;52.272;9.580;2023-02-01T10:42:25;7.50;99.90
21167;DHT22;10741;52.272;9.580;2023-02-01T10:44:52;7.40;99.90
21167;DHT22;10741;52.272;9.580;2023-02-01T10:47:19;7.40;99.90
21167;DHT22;10741;52.272;9.580;2023-02-01T10:50:44;7.30;99.90
21167;DHT22;10741;52.272;9.580;2023-02-01T10:53:40;7.20;99.90
21167;DHT22;10741;52.272;9.580;2023-02-01T10:56:12;7.20;99.90
21167;DHT22;10741;52.272;9.580;2023-02-01T10:58:47;7.20;99.90
21167;DHT22;10741;52.272;9.580;2023-02-01T11:01:20;7.20;99.90
21167;DHT22;10741;52.272;9.580;2023-02-01T11:03:55;7.20;99.90
21167;DHT22;10741;52.272;9.580;2023-02-01T11:08:52;7.20;99.90
21167;DHT22;10741;52.272;9.580;2023-02-01T11:11:19;7.20;99.90
21167;DHT22;10741;52.272;9.580;2023-02-01T11:16:36;7.20;99.90
21167;DHT22;10741;52.272;9.580;2023-02-01T11:19:02;7.10;99.90
21167;DHT22;10741;52.272;9.580;2023-02-01T11:21:29;7.10;99.90
21167;DHT22;10741;52.272;9.580;2023-02-01T11:23:55;7.10;99.90
21167;DHT22;10741;52.272;9.580;2023-02-01T11:26:27;7.20;99.90
21167;DHT22;10741;52.272;9.580;2023-02-01T11:29:01;7.10;99.90
21167;DHT22;10741;52.272;9.580;2023-02-01T11:31:28;7.10;99.90
21167;DHT22;10741;52.272;9.580;2023-02-01T11:34:00;7.10;99.90
21167;DHT22;10741;52.272;9.580;2023-02-01T11:36:32;7.10;99.90
21167;DHT22;10741;52.272;9.580;2023-02-01T11:39:32;7.10;99.90
21167;DHT22;10741;52.272;9.580;2023-02-01T11:42:11;7.20;99.90
21167;DHT22;10741;52.272;9.580;2023-02-01T11:44:43;7.10;99.90
21167;DHT22;10741;52.272;9.580;2023-02-01T11:47:28;7.00;99.90
21167;DHT22;10741;52.272;9.580;2023-02-01T11:50:05;7.00;99.90
21167;DHT22;10741;52.272;9.580;2023-02-01T11:58:02;7.10;99.90
21167;DHT22;10741;52.272;9.580;2023-02-01T12:06:45;7.10;99.90
21167;DHT22;10741;52.272;9.580;2023-02-01T12:15:00;7.30;99.90
21167;DHT22;10741;52.272;9.580;2023-02-01T12:34:36;6.40;99.90
21167;DHT22;10741;52.272;9.580;2023-02-01T12:37:34;6.10;99.90
21167;DHT22;10741;52.272;9.580;2023-02-01T12:43:18;5.70;99.90
21167;DHT22;10741;52.272;9.580;2023-02-01T12:45:59;5.60;99.90
21167;DHT22;10741;52.272;9.580;2023-02-01T12:48:40;5.60;99.90
21167;DHT22;10741;52.272;9.580;2023-02-01T12:51:13;5.60;99.90
21167;DHT22;10741;52.272;9.580;2023-02-01T12:53:55;5.60;99.90
21167;DHT22;10741;52.272;9.580;2023-02-01T12:56:37;5.70;99.90
21167;DHT22;10741;52.272;9.580;2023-02-01T12:59:27;5.80;99.90
21167;DHT22;10741;52.272;9.580;2023-02-01T13:02:16;5.80;99.90
21167;DHT22;10741;52.272;9.580;2023-02-01T13:07:43;5.90;99.90
21167;DHT22;10741;52.272;9.580;2023-02-01T13:12:54;5.80;99.90
21167;DHT22;10741;52.272;9.580;2023-02-01T13:15:31;5.70;99.90
21167;DHT22;10741;52.272;9.580;2023-02-01T13:18:02;5.70;99.90
21167;DHT22;10741;52.272;9.580;2023-02-01T13:23:29;5.60;99.90
21167;DHT22;10741;52.272;9.580;2023-02-01T13:25:56;5.50;99.90
21167;DHT22;10741;52.272;9.580;2023-02-01T13:31:41;5.30;99.90
21167;DHT22;10741;52.272;9.580;2023-02-01T13:39:58;5.20;99.90
21167;DHT22;10741;52.272;9.580;2023-02-01T13:42:29;5.20;99.90
21167;DHT22;10741;52.272;9.580;2023-02-01T13:45:04;5.20;99.90
21167;DHT22;10741;52.272;9.580;2023-02-01T13:47:42;5.20;99.90
21167;DHT22;10741;52.272;9.580;2023-02-01T13:52:45;3.70;99.90
21167;DHT22;10741;52.272;9.580;2023-02-01T13:57:47;2.40;99.90
21167;DHT22;10741;52.272;9.580;2023-02-01T14:00:42;2.10;99.90
21167;DHT22;10741;52.272;9.580;2023-02-01T14:03:16;2.10;99.90
21167;DHT22;10741;52.272;9.580;2023-02-01T14:08:23;2.20;99.90
21167;DHT22;10741;52.272;9.580;2023-02-01T14:10:55;2.10;99.90
21167;DHT22;10741;52.272;9.580;2023-02-01T14:21:19;2.20;99.90
21167;DHT22;10741;52.272;9.580;2023-02-01T14:24:01;2.20;99.90
21167;DHT22;10741;52.272;9.580;2023-02-01T14:26:56;2.10;99.90
21167;DHT22;10741;52.272;9.580;2023-02-01T14:29:36;2.10;99.90
21167;DHT22;10741;52.272;9.580;2023-02-01T14:32:16;2.20;99.90
21167;DHT22;10741;52.272;9.580;2023-02-01T14:34:51;2.40;99.90
21167;DHT22;10741;52.272;9.580;2023-02-01T14:40:05;2.60;99.90
21167;DHT22;10741;52.272;9.580;2023-02-01T14:42:44;2.70;99.90
21167;DHT22;10741;52.272;9.580;2023-02-01T14:53:08;3.10;99.90
21167;DHT22;10741;52.272;9.580;2023-02-01T15:01:05;3.20;99.90
21167;DHT22;10741;52.272;9.580;2023-02-01T15:06:38;3.20;99.90
21167;DHT22;10741;52.272;9.580;2023-02-01T15:09:18;3.20;99.90
21167;DHT22;10741;52.272;9.580;2023-02-01T15:14:35;3.30;99.90
21167;DHT22;10741;52.272;9.580;2023-02-01T15:17:01;3.30;99.90
21167;DHT22;10741;52.272;9.580;2023-02-01T15:19:29;3.30;99.90
21167;DHT22;10741;52.272;9.580;2023-02-01T15:21:57;3.30;99.90
21167;DHT22;10741;52.272;9.580;2023-02-01T15:24:28;3.40;99.90
21167;DHT22;10741;52.272;9.580;2023-02-01T15:26:55;3.40;99.90
21167;DHT22;10741;52.272;9.580;2023-02-01T15:29:23;3.40;99.90
21167;DHT22;10741;52.272;9.580;2023-02-01T15:31:54;3.40;99.90
21167;DHT22;10741;52.272;9.580;2023-02-01T15:34:21;3.40;99.90
21167;DHT22;10741;52.272;9.580;2023-02-01T15:36:47;3.40;99.90
21167;DHT22;10741;52.272;9.580;2023-02-01T15:39:24;3.40;99.90
21167;DHT22;10741;52.272;9.580;2023-02-01T15:42:01;3.40;99.90
21167;DHT22;10741;52.272;9.580;2023-02-01T15:44:41;3.40;99.90
21167;DHT22;10741;52.272;9.580;2023-02-01T15:47:18;3.50;99.90
21167;DHT22;10741;52.272;9.580;2023-02-01T15:49:47;3.50;99.90
21167;DHT22;10741;52.272;9.580;2023-02-01T15:52:46;3.50;99.90
21167;DHT22;10741;52.272;9.580;2023-02-01T15:55:30;3.60;99.90
21167;DHT22;10741;52.272;9.580;2023-02-01T15:57:59;3.70;99.90
21167;DHT22;10741;52.272;9.580;2023-02-01T16:00:26;3.60;99.90
21167;DHT22;10741;52.272;9.580;2023-02-01T16:03:02;3.70;99.90
21167;DHT22;10741;52.272;9.580;2023-02-01T16:05:40;3.70;99.90
21167;DHT22;10741;52.272;9.580;2023-02-01T16:08:22;3.70;99.90
21167;DHT22;10741;52.272;9.580;2023-02-01T16:10:50;3.80;99.90
21167;DHT22;10741;52.272;9.580;2023-02-01T16:13:18;3.80;99.90
21167;DHT22;10741;52.272;9.580;2023-02-01T16:15:44;3.80;99.90
21167;DHT22;10741;52.272;9.580;2023-02-01T16:18:10;3.70;99.90
21167;DHT22;10741;52.272;9.580;2023-02-01T16:20:38;3.80;99.90
21167;DHT22;10741;52.272;9.580;2023-02-01T16:23:05;3.70;99.90
21167;DHT22;10741;52.272;9.580;2023-02-01T16:25:31;3.80;99.90
21167;DHT22;10741;52.272;9.580;2023-02-01T16:27:57;3.70;99.90
21167;DHT22;10741;52.272;9.580;2023-02-01T16:30:23;3.80;99.90
21167;DHT22;10741;52.272;9.580;2023-02-01T16:32:54;3.80;99.90
21167;DHT22;10741;52.272;9.580;2023-02-01T16:35:24;3.80;99.90
21167;DHT22;10741;52.272;9.580;2023-02-01T16:37:50;3.70;99.90
21167;DHT22;10741;52.272;9.580;2023-02-01T16:40:18;3.90;99.90
21167;DHT22;10741;52.272;9.580;2023-02-01T16:42:46;4.00;99.90
21167;DHT22;10741;52.272;9.580;2023-02-01T16:45:13;3.90;99.90
21167;DHT22;10741;52.272;9.580;2023-02-01T16:47:42;4.00;99.90
21167;DHT22;10741;52.272;9.580;2023-02-01T16:50:18;4.10;99.90
21167;DHT22;10741;52.272;9.580;2023-02-01T16:52:46;4.10;99.90
21167;DHT22;10741;52.272;9.580;2023-02-01T16:55:14;4.10;99.90
21167;DHT22;10741;52.272;9.580;2023-02-01T16:57:41;4.10;99.90
21167;DHT22;10741;52.272;9.580;2023-02-01T17:00:09;4.10;99.90
21167;DHT22;10741;52.272;9.580;2023-02-01T17:02:35;4.20;99.90
21167;DHT22;10741;52.272;9.580;2023-02-01T17:05:00;4.20;99.90
21167;DHT22;10741;52.272;9.580;2023-02-01T17:07:26;4.10;99.90
21167;DHT22;10741;52.272;9.580;2023-02-01T17:09:52;4.10;99.90
21167;DHT22;10741;52.272;9.580;2023-02-01T17:12:22;4.10;99.90
21167;DHT22;10741;52.272;9.580;2023-02-01T17:14:49;4.10;99.90
21167;DHT22;10741;52.272;9.580;2023-02-01T17:17:16;4.10;99.90
21167;DHT22;10741;52.272;9.580;2023-02-01T17:19:43;4.10;99.90
21167;DHT22;10741;52.272;9.580;2023-02-01T17:22:10;4.20;99.90
21167;DHT22;10741;52.272;9.580;2023-02-01T17:24:36;4.30;99.90
21167;DHT22;10741;52.272;9.580;2023-02-01T17:27:01;4.30;99.90
21167;DHT22;10741;52.272;9.580;2023-02-01T17:29:28;4.30;99.90
21167;DHT22;10741;52.272;9.580;2023-02-01T17:31:55;4.30;99.90
21167;DHT22;10741;52.272;9.580;2023-02-01T17:34:21;4.40;99.90
21167;DHT22;10741;52.272;9.580;2023-02-01T17:36:47;4.50;99.90
21167;DHT22;10741;52.272;9.580;2023-02-01T17:39:14;4.60;99.90
21167;DHT22;10741;52.272;9.580;2023-02-01T17:42:01;4.70;99.90
21167;DHT22;10741;52.272;9.580;2023-02-01T17:44:27;4.70;99.90
21167;DHT22;10741;52.272;9.580;2023-02-01T17:46:52;4.70;99.90
21167;DHT22;10741;52.272;9.580;2023-02-01T17:49:18;4.70;99.90
21167;DHT22;10741;52.272;9.580;2023-02-01T17:51:44;4.70;99.90
21167;DHT22;10741;52.272;9.580;2023-02-01T17:54:13;4.70;99.90
21167;DHT22;10741;52.272;9.580;2023-02-01T17:56:39;4.80;99.90
21167;DHT22;10741;52.272;9.580;2023-02-01T17:59:05;4.80;99.90
21167;DHT22;10741;52.272;9.580;2023-02-01T18:01:31;4.90;99.90
21167;DHT22;10741;52.272;9.580;2023-02-01T18:03:57;4.90;99.90
21167;DHT22;10741;52.272;9.580;2023-02-01T18:06:24;5.00;99.90
21167;DHT22;10741;52.272;9.580;2023-02-01T18:08:55;5.00;99.90
21167;DHT22;10741;52.272;9.580;2023-02-01T18:11:23;5.30;99.90
21167;DHT22;10741;52.272;9.580;2023-02-01T18:13:51;5.40;99.90
21167;DHT22;10741;52.272;9.580;2023-02-01T18:18:46;5.40;99.90
21167;DHT22;10741;52.272;9.580;2023-02-01T18:21:12;5.20;99.90
21167;DHT22;10741;52.272;9.580;2023-02-01T18:23:38;5.20;99.90
21167;DHT22;10741;52.272;9.580;2023-02-01T18:26:04;5.10;99.90
21167;DHT22;10741;52.272;9.580;2023-02-01T18:28:30;5.20;99.90
21167;DHT22;10741;52.272;9.580;2023-02-01T18:30:56;5.10;99.90